Stations météo

réclame
Mon MeteoGroup
Lagunas de Somoza, Espagne (8123): Température de l'air & dewpoint: 19.09.2018 11:00:00 - 25.09.2018 11:00:00 (CEST)Lagunas de Somoza, Espagne (8123): Vitesse du vent & gusts: 19.09.2018 11:00:00 - 25.09.2018 11:00:00 (CEST)Lagunas de Somoza, Espagne (8123): Direction du vent: 19.09.2018 11:00:00 - 25.09.2018 11:00:00 (CEST)Lagunas de Somoza, Espagne (8123): Quantités de précipitations: 19.09.2018 11:00:00 - 25.09.2018 11:00:00 (CEST)
Date & Time tt [°C] td [°C] ff [km/h] ff [knt] fx [km/h] fx [knt] dd rr [mm]
25.09.2018 11:00:00 13,4 0,8 5 3 15 8 N 0,0
25.09.2018 10:00:00 10,1 0,5 4 2 9 5 N 0,0
25.09.2018 09:00:00 5,1 -0,5 0 0 7 4 W 0,0
25.09.2018 08:00:00 3,8 -1,7 2 1 9 5 SE -
25.09.2018 07:00:00 4,1 -1,5 7 4 9 5 ESE 0,0
25.09.2018 06:00:00 4,8 -1,0 4 2 8 4 ESE 0,0
25.09.2018 05:00:00 6,1 0,0 0 0 10 5 E 0,0
25.09.2018 04:00:00 6,3 1,6 2 1 8 5 E 0,0
25.09.2018 03:00:00 7,5 1,8 1 1 8 4 NW 0,0
25.09.2018 02:00:00 8,3 2,3 2 1 5 3 N -
25.09.2018 01:00:00 9,0 1,9 2 1 5 3 ENE 0,0
25.09.2018 00:00:00 11,2 1,7 0 0 5 3 N 0,0
24.09.2018 23:00:00 13,7 4,6 2 1 17 9 WNW 0,0
24.09.2018 22:00:00 16,0 6,2 12 6 20 11 NW 0,0
24.09.2018 21:00:00 18,5 8,5 1 1 11 6 NNW 0,0
24.09.2018 20:00:00 21,5 9,4 9 5 16 9 NW -
24.09.2018 19:00:00 23,4 10,1 10 5 17 9 NNW 0,0
24.09.2018 18:00:00 23,9 10,6 8 4 22 12 NW 0,0
24.09.2018 17:00:00 23,8 10,8 10 5 22 12 NNW 0,0
24.09.2018 16:00:00 23,6 11,3 11 6 19 10 NW 0,0
24.09.2018 15:00:00 22,4 11,2 4 2 23 12 NNE 0,0
24.09.2018 14:00:00 21,5 11,2 5 3 20 11 NNW -
24.09.2018 13:00:00 19,6 11,1 5 3 19 11 W 0,0
24.09.2018 12:00:00 19,6 11,9 10 5 18 10 NW 0,0
24.09.2018 11:00:00 18,0 12,5 9 5 18 10 NNW 0,0
24.09.2018 10:00:00 16,3 13,2 8 4 12 7 N 0,0
24.09.2018 09:00:00 11,6 10,8 3 2 7 4 E 0,0
24.09.2018 08:00:00 10,6 9,8 1 0 10 5 E -
24.09.2018 07:00:00 11,1 10,3 8 5 11 6 ESE 0,0
24.09.2018 06:00:00 10,7 9,6 4 2 7 4 ESE 0,0
24.09.2018 05:00:00 11,8 10,4 2 1 6 4 SSE 0,0
24.09.2018 04:00:00 13,1 11,5 6 3 10 6 ESE 0,0
24.09.2018 03:00:00 13,8 12,0 9 5 11 6 ESE 0,0
24.09.2018 02:00:00 14,0 10,8 3 1 8 4 ESE -
24.09.2018 01:00:00 16,6 10,5 4 2 11 6 ESE 0,0
24.09.2018 00:00:00 19,2 10,2 4 2 11 6 SW 0,0
23.09.2018 23:00:00 20,3 10,4 4 2 26 14 S 0,0
23.09.2018 22:00:00 20,5 10,0 16 9 25 14 ESE 0,0
23.09.2018 21:00:00 21,8 9,0 18 10 26 14 ESE 0,0
23.09.2018 20:00:00 24,6 9,7 16 9 28 15 ESE -
23.09.2018 19:00:00 26,8 10,5 18 10 29 16 ESE 0,0
23.09.2018 18:00:00 28,0 8,8 17 9 35 19 SE 0,0
23.09.2018 17:00:00 28,2 7,4 18 10 36 19 SE 0,0
23.09.2018 16:00:00 28,2 8,5 18 10 33 18 SSE 0,0
23.09.2018 15:00:00 28,7 8,9 6 3 20 11 SE 0,0
23.09.2018 14:00:00 27,5 10,7 4 2 15 8 N -
23.09.2018 13:00:00 25,7 11,5 3 2 12 7 NE 0,0
23.09.2018 12:00:00 24,3 12,3 2 1 10 5 ENE 0,0
23.09.2018 11:00:00 22,4 12,9 4 2 11 6 WSW 0,0
23.09.2018 10:00:00 19,8 13,5 2 1 9 5 SSW 0,0
23.09.2018 09:00:00 13,9 12,8 1 1 7 4 SSE 0,0
23.09.2018 08:00:00 12,0 10,6 3 1 11 6 SE -
23.09.2018 07:00:00 13,1 10,6 9 5 11 6 ESE 0,0
23.09.2018 06:00:00 13,3 10,7 6 4 9 5 ESE 0,0
23.09.2018 05:00:00 14,2 9,8 0 0 13 7 NW 0,0
23.09.2018 04:00:00 16,8 10,0 6 4 10 5 ESE 0,0
23.09.2018 03:00:00 16,6 10,7 4 2 10 5 ESE 0,0
23.09.2018 02:00:00 17,5 11,3 7 4 10 6 ESE -
23.09.2018 01:00:00 17,7 11,3 5 3 10 6 SE 0,0
23.09.2018 00:00:00 18,8 11,1 5 3 12 7 ESE 0,0
22.09.2018 23:00:00 19,7 11,2 10 6 16 9 ESE 0,0
22.09.2018 22:00:00 19,3 9,2 3 2 8 4 SE 0,0
22.09.2018 21:00:00 21,6 8,8 5 3 18 10 ESE 0,0
22.09.2018 20:00:00 25,2 9,5 8 4 17 9 SSE -
22.09.2018 19:00:00 27,8 10,1 8 4 25 13 WSW 0,0
22.09.2018 18:00:00 28,7 9,9 5 3 15 8 NNE 0,0
22.09.2018 17:00:00 28,7 9,9 6 3 13 7 E 0,0
22.09.2018 16:00:00 27,9 10,2 3 2 16 9 NE 0,0
22.09.2018 15:00:00 27,2 10,0 4 2 27 14 NNE 0,0
22.09.2018 14:00:00 25,6 9,8 5 3 15 8 NW -
22.09.2018 13:00:00 23,9 10,9 5 3 14 8 NNW 0,0
22.09.2018 12:00:00 22,2 12,5 6 3 11 6 NW 0,0
22.09.2018 11:00:00 20,1 12,6 2 1 7 4 W 0,0
22.09.2018 10:00:00 16,9 13,8 0 0 5 3 SSW 0,0
22.09.2018 09:00:00 11,6 11,3 1 1 6 3 SSE 0,0
22.09.2018 08:00:00 9,4 8,8 1 0 4 2 S -
22.09.2018 07:00:00 9,9 9,3 1 1 6 4 E 0,0
22.09.2018 06:00:00 10,8 10,2 2 1 10 5 SE 0,0
22.09.2018 05:00:00 12,0 11,4 6 3 11 6 S 0,0
22.09.2018 04:00:00 11,8 10,7 5 3 8 5 ESE 0,0
22.09.2018 03:00:00 13,4 11,1 0 0 11 6 SSW 0,0
22.09.2018 02:00:00 13,7 11,1 3 2 10 5 SE -
22.09.2018 01:00:00 15,2 12,0 8 4 11 6 ESE 0,0
22.09.2018 00:00:00 16,9 12,6 7 4 12 7 E 0,0
21.09.2018 23:00:00 17,7 12,4 8 4 17 9 E 0,0
21.09.2018 22:00:00 17,5 12,2 3 2 10 6 ESE 0,0
21.09.2018 21:00:00 19,2 12,2 8 4 18 10 ESE 0,0
21.09.2018 20:00:00 20,4 12,6 10 5 26 14 SE -
21.09.2018 19:00:00 21,6 12,7 15 8 28 15 SSE 0,0
21.09.2018 18:00:00 22,2 12,5 15 8 29 16 SSE 0,0
21.09.2018 17:00:00 23,3 12,3 17 9 27 15 SSE 0,0
21.09.2018 16:00:00 23,6 12,3 12 6 27 15 S 0,0
21.09.2018 15:00:00 23,8 10,8 11 6 22 12 SSE 0,0
21.09.2018 14:00:00 22,6 9,4 10 5 24 13 SSE -
21.09.2018 13:00:00 20,1 7,8 14 8 27 14 SSE 0,0
21.09.2018 12:00:00 20,4 8,4 14 7 24 13 SSE 0,0
21.09.2018 11:00:00 19,5 8,2 8 5 15 8 E 0,0
21.09.2018 10:00:00 15,8 8,3 3 2 10 6 SSE 0,0
21.09.2018 09:00:00 12,1 6,8 8 5 16 9 S 0,0
21.09.2018 08:00:00 10,6 5,2 1 1 8 5 SE -
21.09.2018 07:00:00 12,6 5,5 2 1 18 10 W 0,0
21.09.2018 06:00:00 16,2 7,7 13 7 21 12 ESE 0,0
21.09.2018 05:00:00 16,3 8,0 9 5 16 8 SE 0,0
21.09.2018 04:00:00 16,0 7,8 10 5 26 14 SE 0,0
21.09.2018 03:00:00 16,7 7,6 21 11 29 16 ESE 0,0
21.09.2018 02:00:00 17,3 6,8 18 10 28 15 E -
21.09.2018 01:00:00 16,8 4,2 17 9 23 13 ESE 0,0
21.09.2018 00:00:00 16,4 6,5 3 2 17 9 S 0,0
20.09.2018 23:00:00 16,5 7,4 1 0 15 8 N 0,0
20.09.2018 22:00:00 18,6 9,1 11 6 22 12 ESE 0,0
20.09.2018 21:00:00 20,1 8,8 10 6 16 9 ESE 0,0
20.09.2018 20:00:00 23,7 5,6 6 3 18 10 NE -
20.09.2018 19:00:00 25,1 4,8 10 6 27 15 E 0,0
20.09.2018 18:00:00 26,3 5,3 11 6 29 15 NE 0,0
20.09.2018 17:00:00 27,6 6,9 15 8 35 19 NE 0,0
20.09.2018 16:00:00 27,3 7,7 14 7 33 18 NNE 0,0
20.09.2018 15:00:00 27,1 7,6 18 10 32 18 N 0,0
20.09.2018 14:00:00 26,7 8,7 15 8 31 17 N -
20.09.2018 13:00:00 24,5 10,0 6 4 17 9 NNW 0,0
20.09.2018 12:00:00 22,3 9,1 5 3 13 7 NNW 0,0
20.09.2018 11:00:00 20,3 9,3 2 1 7 4 W 0,0
20.09.2018 10:00:00 17,0 7,9 0 0 7 4 S 0,0
20.09.2018 09:00:00 10,4 8,3 0 0 6 3 N 0,0
20.09.2018 08:00:00 8,8 6,4 0 0 7 4 N -
20.09.2018 07:00:00 8,5 6,6 0 0 7 4 ESE 0,0
20.09.2018 06:00:00 9,0 6,1 0 0 4 2 E 0,0
20.09.2018 05:00:00 9,6 6,1 3 2 8 4 SE 0,0
20.09.2018 04:00:00 11,0 6,6 0 0 10 6 SE 0,0
20.09.2018 03:00:00 12,6 7,3 1 1 11 6 ENE 0,0
20.09.2018 02:00:00 14,6 7,9 5 3 9 5 E -
20.09.2018 01:00:00 15,4 7,2 5 3 15 8 ESE 0,0
20.09.2018 00:00:00 17,4 7,5 5 3 13 7 E 0,0
19.09.2018 23:00:00 17,0 7,1 4 2 10 6 E 0,0
19.09.2018 22:00:00 18,0 7,1 7 4 16 8 ESE 0,0
19.09.2018 21:00:00 20,1 7,5 7 4 16 9 ESE 0,0
19.09.2018 20:00:00 23,2 10,6 9 5 23 12 SE -
19.09.2018 19:00:00 25,1 10,2 13 7 23 12 SSE 0,0
19.09.2018 18:00:00 27,4 8,8 3 2 22 12 ENE 0,0
19.09.2018 17:00:00 27,5 8,4 11 6 27 14 NNW 0,0
19.09.2018 16:00:00 27,6 9,4 9 5 21 11 NW 0,0
19.09.2018 15:00:00 26,4 8,8 4 2 17 9 NW 0,0
19.09.2018 14:00:00 25,5 10,2 7 4 19 11 NW -
19.09.2018 13:00:00 23,7 11,1 8 4 16 8 NW 0,0
19.09.2018 12:00:00 21,4 11,4 4 2 10 6 SW 0,0
19.09.2018 11:00:00 19,9 12,2 5 3 9 5 W 0,0

tt = Température de l'air
td = dewpoint
ff = Vitesse du vent
fx = gusts
dd = Direction du vent
rr = Quantités de précipitations

stations d'obs. à proximité